Hamilton, Montana
Current Conditions -  °F | °C
As of 9:53 PM on Saturday 20 Dec 2014 (Local Time) from KMSO Reporting Station
Haze Haze  
Wind Chill: 31°   Ceiling: 4800
Heat Index: 31°   Visibility: 5mi
Dew Point: 30°   Wind: 3mph
Humidity: 96%   Direction: 270°W
Pressure: 29.68"   Gusts: NA
Location:  46.25°N, 114.16°W
Report Text: KMSO 210453Z 27003KT 5SM UP BR SCT034 BKN048 OVC070 M01/M01 A2968 RMK AO2 UPB01SNE01B33E41 SLP080 P0000 T10061011 $
Loading
Personal Weather Stations






























Interactive Weather Map New forecast layout! Learn more

10-Day Weather Forecast

Advertisements
Track Severe Weather on mobile